Time;durP1;ratioP1;P1;durP2;ratioP2;P2;SDS_P1;SDS_P2;PMS_P1;PMS_P2;Temp;Humidity;BMP_temperature;BMP_pressure;BME280_temperature;BME280_humidity;BME280_pressure;Samples;Min_cycle;Max_cycle;Signal;HPM_P1;HPM_P2
2023/01/21 00:01:18;;;;;;;1.90;1.80;;;;;;;;;;10504230;28;20040;-83
2023/01/21 00:06:19;;;;;;;0.00;0.00;;;;;;;;;;10512610;28;20039;-82
2023/01/21 00:11:20;;;;;;;0.63;0.63;;;;;;;;;;10530627;28;20043;-82
2023/01/21 00:16:21;;;;;;;0.00;0.00;;;;;;;;;;10509749;28;20052;-82
2023/01/21 00:21:22;;;;;;;0.00;0.00;;;;;;;;;;10535598;28;20042;-82
2023/01/21 00:26:23;;;;;;;0.13;0.13;;;;;;;;;;10516968;28;20036;-84
2023/01/21 00:31:24;;;;;;;0.00;0.00;;;;;;;;;;10523357;28;20505;-83
2023/01/21 00:36:28;;;;;;;0.00;0.00;;;;;;;;;;10522640;28;20036;-83
2023/01/21 00:41:29;;;;;;;0.00;0.00;;;;;;;;;;10521718;28;20116;-82
2023/01/21 00:46:30;;;;;;;0.20;0.20;;;;;;;;;;10504059;28;20043;-83
2023/01/21 00:51:31;;;;;;;0.60;0.60;;;;;;;;;;10512762;28;20036;-82
2023/01/21 00:56:32;;;;;;;1.10;1.10;;;;;;;;;;10517452;28;20480;-83
2023/01/21 01:01:36;;;;;;;0.00;0.00;;;;;;;;;;10525320;28;20028;-82
2023/01/21 01:06:37;;;;;;;0.97;0.97;;;;;;;;;;10515765;28;20035;-83
2023/01/21 01:11:39;;;;;;;0.00;0.00;;;;;;;;;;10527186;28;20036;-83
2023/01/21 01:16:40;;;;;;;0.00;0.00;;;;;;;;;;10533625;28;20137;-83
2023/01/21 01:21:41;;;;;;;0.10;0.10;;;;;;;;;;10520686;28;20024;-84
2023/01/21 01:26:42;;;;;;;0.00;0.00;;;;;;;;;;10511651;28;20399;-83
2023/01/21 01:31:43;;;;;;;0.10;0.10;;;;;;;;;;10520744;28;20056;-83
2023/01/21 01:36:44;;;;;;;0.73;0.73;;;;;;;;;;10538385;28;20122;-83
2023/01/21 01:41:45;;;;;;;0.00;0.00;;;;;;;;;;10519591;28;20028;-84
2023/01/21 01:46:46;;;;;;;0.10;0.10;;;;;;;;;;10525001;28;20431;-85
2023/01/21 01:51:47;;;;;;;0.57;0.40;;;;;;;;;;10526716;28;20092;-83
2023/01/21 01:56:49;;;;;;;0.00;0.00;;;;;;;;;;10519104;28;20044;-83
2023/01/21 02:01:50;;;;;;;1.87;1.70;;;;;;;;;;10525846;28;20032;-83
2023/01/21 02:06:53;;;;;;;0.00;0.00;;;;;;;;;;10525891;28;20059;-83
2023/01/21 02:11:54;;;;;;;1.20;1.17;;;;;;;;;;10521311;28;20391;-83
2023/01/21 02:17:01;;;;;;;0.00;0.00;;;;;;;;;;10525266;28;20092;-84
2023/01/21 02:22:21;;;;;;;0.10;0.10;;;;;;;;;;10507399;28;20039;-83
2023/01/21 02:27:41;;;;;;;0.30;0.30;;;;;;;;;;10526067;28;20028;-85
2023/01/21 02:32:58;;;;;;;0.40;0.40;;;;;;;;;;10507791;28;20033;-84
2023/01/21 02:38:19;;;;;;;0.10;0.10;;;;;;;;;;10517831;28;20432;-84
2023/01/21 02:43:41;;;;;;;0.00;0.00;;;;;;;;;;10515454;28;20074;-83
2023/01/21 02:48:49;;;;;;;0.27;0.27;;;;;;;;;;10505684;28;20173;-83
2023/01/21 02:53:50;;;;;;;0.53;0.43;;;;;;;;;;10521627;28;20491;-86
2023/01/21 02:59:00;;;;;;;0.00;0.00;;;;;;;;;;10523234;28;20035;-83
2023/01/21 03:04:07;;;;;;;1.80;1.43;;;;;;;;;;10514640;28;20741;-83
2023/01/21 03:09:09;;;;;;;0.00;0.00;;;;;;;;;;10524457;28;20040;-83
2023/01/21 03:19:46;;;;;;;0.00;0.00;;;;;;;;;;10518875;28;20037;-83
2023/01/21 03:24:49;;;;;;;0.10;0.10;;;;;;;;;;10532938;28;20132;-83
2023/01/21 03:29:53;;;;;;;0.20;0.20;;;;;;;;;;10533152;28;20036;-86
2023/01/21 03:34:55;;;;;;;0.00;0.00;;;;;;;;;;10510175;28;20043;-85
2023/01/21 03:40:04;;;;;;;0.00;0.00;;;;;;;;;;10546860;28;20100;-84
2023/01/21 03:45:06;;;;;;;0.10;0.10;;;;;;;;;;10519082;28;20044;-83
2023/01/21 03:50:10;;;;;;;0.00;0.00;;;;;;;;;;10517683;28;20032;-84
2023/01/21 03:55:12;;;;;;;0.07;0.07;;;;;;;;;;10516278;28;20097;-84
2023/01/21 04:00:14;;;;;;;0.33;0.33;;;;;;;;;;10535938;28;20036;-84
2023/01/21 04:05:15;;;;;;;0.00;0.00;;;;;;;;;;10520893;28;20057;-85
2023/01/21 04:10:17;;;;;;;0.00;0.00;;;;;;;;;;10517102;28;20028;-85
2023/01/21 04:15:18;;;;;;;0.27;0.27;;;;;;;;;;10527353;28;20073;-84
2023/01/21 04:20:19;;;;;;;0.00;0.00;;;;;;;;;;10514813;28;20024;-83
2023/01/21 04:25:20;;;;;;;0.00;0.00;;;;;;;;;;10545538;28;20024;-83
2023/01/21 04:30:21;;;;;;;0.00;0.00;;;;;;;;;;10523415;28;20043;-84
2023/01/21 04:35:22;;;;;;;0.30;0.30;;;;;;;;;;10526968;28;20066;-84
2023/01/21 04:40:23;;;;;;;0.57;0.57;;;;;;;;;;10529992;28;20089;-86
2023/01/21 04:45:24;;;;;;;0.00;0.00;;;;;;;;;;10539942;28;20545;-84
2023/01/21 04:50:25;;;;;;;0.67;0.67;;;;;;;;;;10545359;28;20036;-84
2023/01/21 04:55:26;;;;;;;0.13;0.13;;;;;;;;;;10524837;28;20033;-84
2023/01/21 05:00:27;;;;;;;0.73;0.73;;;;;;;;;;10507373;28;20050;-86
2023/01/21 05:05:28;;;;;;;0.00;0.00;;;;;;;;;;10509062;28;20069;-84
2023/01/21 05:10:29;;;;;;;0.00;0.00;;;;;;;;;;10519914;28;20053;-83
2023/01/21 05:15:31;;;;;;;0.30;0.30;;;;;;;;;;10521214;28;20056;-84
2023/01/21 05:20:32;;;;;;;0.00;0.00;;;;;;;;;;10520030;28;20036;-84
2023/01/21 05:25:33;;;;;;;0.00;0.00;;;;;;;;;;10527615;28;20036;-83
2023/01/21 05:30:34;;;;;;;0.00;0.00;;;;;;;;;;10517079;28;20743;-83
2023/01/21 05:35:35;;;;;;;0.00;0.00;;;;;;;;;;10525308;28;20123;-84
2023/01/21 05:40:37;;;;;;;0.83;0.83;;;;;;;;;;10518643;28;20040;-83
2023/01/21 05:45:38;;;;;;;0.00;0.00;;;;;;;;;;10525948;28;20041;-83
2023/01/21 05:50:39;;;;;;;0.00;0.00;;;;;;;;;;10512981;28;20522;-82
2023/01/21 05:55:40;;;;;;;0.00;0.00;;;;;;;;;;10526465;28;20038;-86
2023/01/21 06:00:41;;;;;;;0.00;0.00;;;;;;;;;;10515621;28;20115;-85
2023/01/21 06:05:42;;;;;;;0.10;0.10;;;;;;;;;;10526695;28;20032;-83
2023/01/21 06:10:44;;;;;;;0.00;0.00;;;;;;;;;;10525630;28;20094;-83
2023/01/21 06:15:45;;;;;;;0.77;0.77;;;;;;;;;;10520172;28;20102;-84
2023/01/21 06:20:46;;;;;;;0.20;0.20;;;;;;;;;;10519666;28;20031;-84
2023/01/21 06:25:47;;;;;;;0.00;0.00;;;;;;;;;;10512180;28;20691;-83
2023/01/21 06:30:48;;;;;;;0.00;0.00;;;;;;;;;;10530226;28;20044;-84
2023/01/21 06:35:49;;;;;;;0.20;0.20;;;;;;;;;;10523432;28;20039;-84
2023/01/21 06:40:50;;;;;;;0.00;0.00;;;;;;;;;;10514300;28;20044;-86
2023/01/21 06:45:51;;;;;;;7.70;0.93;;;;;;;;;;10513111;28;20384;-84
2023/01/21 06:50:52;;;;;;;0.00;0.00;;;;;;;;;;10515848;28;20103;-84
2023/01/21 06:55:53;;;;;;;0.00;0.00;;;;;;;;;;10519896;28;20040;-84
2023/01/21 07:00:57;;;;;;;0.77;0.73;;;;;;;;;;10536495;28;20055;-84
2023/01/21 07:05:58;;;;;;;0.00;0.00;;;;;;;;;;10514621;22;20061;-83
2023/01/21 07:10:59;;;;;;;0.10;0.10;;;;;;;;;;10450008;28;20039;-84
2023/01/21 07:16:01;;;;;;;0.77;0.77;;;;;;;;;;10450120;28;20472;-83
2023/01/21 07:21:02;;;;;;;0.00;0.00;;;;;;;;;;10447998;28;20032;-81
2023/01/21 07:26:03;;;;;;;0.00;0.00;;;;;;;;;;10449923;28;20086;-81
2023/01/21 07:31:04;;;;;;;0.00;0.00;;;;;;;;;;10449001;28;20027;-81
2023/01/21 07:36:06;;;;;;;0.00;0.00;;;;;;;;;;10448812;28;20043;-80
2023/01/21 07:41:07;;;;;;;0.00;0.00;;;;;;;;;;10446333;28;20033;-83
2023/01/21 07:46:08;;;;;;;0.10;0.10;;;;;;;;;;10448994;28;20391;-81
2023/01/21 07:51:09;;;;;;;0.00;0.00;;;;;;;;;;10447820;28;20035;-81
2023/01/21 07:56:10;;;;;;;0.93;0.50;;;;;;;;;;10448318;28;20707;-81
2023/01/21 08:01:11;;;;;;;0.47;0.47;;;;;;;;;;10444703;28;21656;-82
2023/01/21 08:06:12;;;;;;;0.00;0.00;;;;;;;;;;10447229;28;20067;-84
2023/01/21 08:11:13;;;;;;;0.00;0.00;;;;;;;;;;10448235;28;20024;-82
2023/01/21 08:16:14;;;;;;;1.60;1.10;;;;;;;;;;10447861;28;20032;-83
2023/01/21 08:21:15;;;;;;;0.00;0.00;;;;;;;;;;10446512;28;20140;-84
2023/01/21 08:26:16;;;;;;;0.00;0.00;;;;;;;;;;10446743;28;20028;-83
2023/01/21 08:31:17;;;;;;;0.00;0.00;;;;;;;;;;10446621;28;20051;-83
2023/01/21 08:36:18;;;;;;;0.63;0.63;;;;;;;;;;10446807;28;20072;-86
2023/01/21 08:41:19;;;;;;;1.60;1.50;;;;;;;;;;10445517;28;20072;-85
2023/01/21 08:46:20;;;;;;;0.00;0.00;;;;;;;;;;10460880;28;20032;-86
2023/01/21 08:51:21;;;;;;;0.00;0.00;;;;;;;;;;10445785;28;20029;-85
2023/01/21 08:56:22;;;;;;;0.00;0.00;;;;;;;;;;10444004;28;20717;-85
2023/01/21 09:01:24;;;;;;;0.17;0.17;;;;;;;;;;10455207;28;20501;-84
2023/01/21 09:06:26;;;;;;;0.00;0.00;;;;;;;;;;10445975;28;20501;-84
2023/01/21 09:11:28;;;;;;;1.13;1.03;;;;;;;;;;10438597;28;20039;-80
2023/01/21 09:16:30;;;;;;;0.63;0.50;;;;;;;;;;10438143;28;20040;-82
2023/01/21 09:21:36;;;;;;;0.00;0.00;;;;;;;;;;10442011;28;20064;-84
2023/01/21 09:26:37;;;;;;;;;;;;;;;;;;10445219;28;20645;-83
2023/01/21 09:31:38;;;;;;;0.30;0.30;;;;;;;;;;10443473;28;19955;-82
2023/01/21 09:36:40;;;;;;;1.97;1.80;;;;;;;;;;10433868;28;20171;-81
2023/01/21 09:41:44;;;;;;;0.00;0.00;;;;;;;;;;10442525;28;20037;-83
2023/01/21 09:46:48;;;;;;;0.27;0.27;;;;;;;;;;10444288;28;20087;-83
2023/01/21 09:51:52;;;;;;;0.10;0.10;;;;;;;;;;10432434;28;20034;-81
2023/01/21 09:57:11;;;;;;;0.00;0.00;;;;;;;;;;10430219;28;20047;-81
2023/01/21 10:02:18;;;;;;;0.00;0.00;;;;;;;;;;10457982;28;20565;-83
2023/01/21 10:07:26;;;;;;;0.63;0.63;;;;;;;;;;10436895;28;20061;-82
2023/01/21 10:12:54;;;;;;;0.43;0.43;;;;;;;;;;10440262;28;20103;-81
2023/01/21 10:18:07;;;;;;;0.00;0.00;;;;;;;;;;10439053;28;20037;-82
2023/01/21 10:23:17;;;;;;;0.00;0.00;;;;;;;;;;10438205;28;20035;-82
2023/01/21 10:28:25;;;;;;;0.10;0.10;;;;;;;;;;10438519;28;20089;-82
2023/01/21 10:33:27;;;;;;;0.00;0.00;;;;;;;;;;10439182;28;20040;-82
2023/01/21 10:38:37;;;;;;;1.03;1.03;;;;;;;;;;10439197;28;20029;-82
2023/01/21 10:43:47;;;;;;;0.50;0.50;;;;;;;;;;10437385;28;20047;-83
2023/01/21 10:48:54;;;;;;;0.83;0.77;;;;;;;;;;10436697;28;20404;-83
2023/01/21 10:54:02;;;;;;;0.30;0.30;;;;;;;;;;10434161;28;20402;-83
2023/01/21 10:59:16;;;;;;;0.20;0.20;;;;;;;;;;10439699;28;20091;-82
2023/01/21 11:04:22;;;;;;;0.80;0.80;;;;;;;;;;10435860;28;20736;-81
2023/01/21 11:09:24;;;;;;;1.85;1.50;;;;;;;;;;10355163;28;20491;-81
2023/01/21 11:14:25;;;;;;;0.00;0.00;;;;;;;;;;10356303;28;20046;-83
2023/01/21 11:19:29;;;;;;;0.03;0.03;;;;;;;;;;10352556;28;20044;-82
2023/01/21 11:24:31;;;;;;;0.00;0.00;;;;;;;;;;10355265;28;20018;-81
2023/01/21 11:29:39;;;;;;;0.10;0.10;;;;;;;;;;10350916;28;20042;-83
2023/01/21 11:34:43;;;;;;;1.03;1.03;;;;;;;;;;10353312;28;20037;-82
2023/01/21 11:39:51;;;;;;;1.90;1.80;;;;;;;;;;10371140;28;20038;-86
2023/01/21 11:44:53;;;;;;;0.30;0.30;;;;;;;;;;10363005;28;20041;-81
2023/01/21 11:49:54;;;;;;;1.60;1.50;;;;;;;;;;10362936;28;20038;-84
2023/01/21 11:54:55;;;;;;;0.10;0.10;;;;;;;;;;10353771;28;20862;-83
2023/01/21 11:59:59;;;;;;;0.63;0.63;;;;;;;;;;10362250;28;20037;-83
2023/01/21 12:05:02;;;;;;;0.07;0.07;;;;;;;;;;10373971;28;20499;-83
2023/01/21 12:10:12;;;;;;;0.00;0.00;;;;;;;;;;10443063;28;20091;-83
2023/01/21 12:15:27;;;;;;;0.00;0.00;;;;;;;;;;10445171;28;20044;-81
2023/01/21 12:20:32;;;;;;;0.63;0.63;;;;;;;;;;10444539;28;20033;-82
2023/01/21 12:25:40;;;;;;;0.10;0.10;;;;;;;;;;10437815;28;20029;-85
2023/01/21 12:30:48;;;;;;;0.00;0.00;;;;;;;;;;10443141;28;20017;-82
2023/01/21 12:35:51;;;;;;;0.00;0.00;;;;;;;;;;10442821;28;20055;-82
2023/01/21 12:40:52;;;;;;;0.00;0.00;;;;;;;;;;10440342;28;20020;-82
2023/01/21 12:46:09;;;;;;;0.20;0.20;;;;;;;;;;10443723;28;20037;-82
2023/01/21 12:51:13;;;;;;;0.00;0.00;;;;;;;;;;10443854;28;20048;-83
2023/01/21 12:56:23;;;;;;;0.00;0.00;;;;;;;;;;10441496;28;20025;-83
2023/01/21 13:01:34;;;;;;;1.70;0.60;;;;;;;;;;10441512;28;20083;-85
2023/01/21 13:06:40;;;;;;;1.00;0.50;;;;;;;;;;10440980;28;20052;-85
2023/01/21 13:12:05;;;;;;;0.27;0.27;;;;;;;;;;10435611;28;20048;-86
2023/01/21 13:17:23;;;;;;;1.10;0.43;;;;;;;;;;10431854;28;20102;-84
2023/01/21 13:22:39;;;;;;;0.00;0.00;;;;;;;;;;10441468;28;20442;-84
2023/01/21 13:27:45;;;;;;;0.00;0.00;;;;;;;;;;10441728;28;20033;-85
2023/01/21 13:32:52;;;;;;;0.10;0.10;;;;;;;;;;10437219;28;20079;-88
2023/01/21 13:38:04;;;;;;;0.10;0.10;;;;;;;;;;10439261;28;20461;-87
2023/01/21 13:43:13;;;;;;;0.73;0.73;;;;;;;;;;10456515;28;20565;-86
2023/01/21 13:48:27;;;;;;;0.00;0.00;;;;;;;;;;10434694;28;20048;-86
2023/01/21 13:53:34;;;;;;;0.00;0.00;;;;;;;;;;10436727;28;20049;-84
2023/01/21 13:58:35;;;;;;;2.83;1.40;;;;;;;;;;10446137;28;20083;-84
2023/01/21 14:03:43;;;;;;;0.10;0.10;;;;;;;;;;10439239;28;20518;-85
2023/01/21 14:08:50;;;;;;;0.70;0.47;;;;;;;;;;10439044;28;20082;-89
2023/01/21 14:13:51;;;;;;;0.60;0.60;;;;;;;;;;10439429;28;20048;-85
2023/01/21 14:19:19;;;;;;;0.30;0.30;;;;;;;;;;10436469;28;20032;-86
2023/01/21 14:24:35;;;;;;;0.77;0.77;;;;;;;;;;10411182;28;20041;-87
2023/01/21 14:29:45;;;;;;;0.30;0.30;;;;;;;;;;10438506;28;20031;-84
2023/01/21 14:34:46;;;;;;;0.00;0.00;;;;;;;;;;10435092;28;20041;-84
2023/01/21 14:39:59;;;;;;;0.33;0.33;;;;;;;;;;10441305;28;20041;-84
2023/01/21 14:45:02;;;;;;;0.00;0.00;;;;;;;;;;10438887;28;20068;-82
2023/01/21 14:50:03;;;;;;;0.67;0.67;;;;;;;;;;10438705;28;20032;-83
2023/01/21 14:55:23;;;;;;;0.10;0.10;;;;;;;;;;10414714;28;20037;-84
2023/01/21 15:00:27;;;;;;;1.20;1.10;;;;;;;;;;10435567;28;20078;-85
2023/01/21 15:05:31;;;;;;;0.20;0.20;;;;;;;;;;10429352;28;20130;-84
2023/01/21 15:10:38;;;;;;;0.00;0.00;;;;;;;;;;10441790;28;20021;-85
2023/01/21 15:16:02;;;;;;;0.00;0.00;;;;;;;;;;10447838;22;20479;-84
2023/01/21 15:21:23;;;;;;;0.10;0.10;;;;;;;;;;10405164;28;20029;-86
2023/01/21 15:26:31;;;;;;;1.03;1.03;;;;;;;;;;10403211;28;20036;-86
2023/01/21 15:31:39;;;;;;;0.90;0.90;;;;;;;;;;10402017;28;20065;-84
2023/01/21 15:36:49;;;;;;;0.73;0.73;;;;;;;;;;10424035;28;20082;-84
2023/01/21 15:42:06;;;;;;;0.87;0.87;;;;;;;;;;10410401;28;20802;-84
2023/01/21 15:47:26;;;;;;;0.47;0.47;;;;;;;;;;10407569;28;20021;-84
2023/01/21 15:52:54;;;;;;;2.57;2.37;;;;;;;;;;10406865;28;20102;-86
2023/01/21 15:57:58;;;;;;;0.50;0.43;;;;;;;;;;10404937;28;20053;-86
2023/01/21 16:02:59;;;;;;;5.53;1.77;;;;;;;;;;10408330;28;20041;-85
2023/01/21 16:08:03;;;;;;;2.10;1.93;;;;;;;;;;10407117;28;20030;-84
2023/01/21 16:13:10;;;;;;;0.87;0.87;;;;;;;;;;10401963;28;20030;-84
2023/01/21 16:18:14;;;;;;;0.30;0.30;;;;;;;;;;10400710;28;20152;-85
2023/01/21 16:23:17;;;;;;;1.43;1.33;;;;;;;;;;10418009;28;20398;-82
2023/01/21 16:28:19;;;;;;;0.60;0.60;;;;;;;;;;10401946;28;20103;-82
2023/01/21 16:33:20;;;;;;;1.50;1.40;;;;;;;;;;10414988;28;20079;-83
2023/01/21 16:38:25;;;;;;;0.93;0.93;;;;;;;;;;10401591;28;20075;-84
2023/01/21 16:43:26;;;;;;;0.43;0.43;;;;;;;;;;10417193;28;20041;-82
2023/01/21 16:48:29;;;;;;;2.10;2.00;;;;;;;;;;10402657;28;20485;-86
2023/01/21 16:53:30;;;;;;;0.77;0.77;;;;;;;;;;10417798;28;20145;-84
2023/01/21 16:58:32;;;;;;;0.40;0.40;;;;;;;;;;10402517;28;20034;-83
2023/01/21 17:03:34;;;;;;;0.77;0.77;;;;;;;;;;10397509;28;20022;-87
2023/01/21 17:08:35;;;;;;;2.07;1.97;;;;;;;;;;10401223;28;20033;-82
2023/01/21 17:13:41;;;;;;;0.70;0.67;;;;;;;;;;10403724;28;20099;-83
2023/01/21 17:18:47;;;;;;;0.77;0.75;;;;;;;;;;10400716;28;20049;-86
2023/01/21 17:23:52;;;;;;;5.83;2.03;;;;;;;;;;10402544;28;20026;-82
2023/01/21 17:28:58;;;;;;;1.23;1.23;;;;;;;;;;10400310;28;20555;-85
2023/01/21 17:34:00;;;;;;;1.63;1.60;;;;;;;;;;10413685;28;20033;-83
2023/01/21 17:39:02;;;;;;;1.17;1.17;;;;;;;;;;10399577;28;20404;-84
2023/01/21 17:44:23;;;;;;;1.90;1.80;;;;;;;;;;10413772;28;20029;-83
2023/01/21 17:49:25;;;;;;;3.47;3.27;;;;;;;;;;10389186;28;20037;-84
2023/01/21 17:54:28;;;;;;;1.87;1.77;;;;;;;;;;10397814;28;20469;-83
2023/01/21 17:59:37;;;;;;;2.13;2.03;;;;;;;;;;10399204;28;20029;-83
2023/01/21 18:04:38;;;;;;;0.73;0.73;;;;;;;;;;10383524;28;20699;-83
2023/01/21 18:09:39;;;;;;;4.93;2.47;;;;;;;;;;10399345;28;20032;-82
2023/01/21 18:14:42;;;;;;;0.00;0.00;;;;;;;;;;10399039;28;20502;-82
2023/01/21 18:19:43;;;;;;;1.60;1.50;;;;;;;;;;10398565;28;20041;-83
2023/01/21 18:24:44;;;;;;;0.57;0.57;;;;;;;;;;10399124;28;20033;-83
2023/01/21 18:29:45;;;;;;;0.50;0.50;;;;;;;;;;10411443;28;20041;-84
2023/01/21 18:34:46;;;;;;;0.57;0.57;;;;;;;;;;10394456;28;20127;-84
2023/01/21 18:39:47;;;;;;;5.80;5.20;;;;;;;;;;10396352;28;20067;-83
2023/01/21 18:44:48;;;;;;;0.30;0.30;;;;;;;;;;10397880;28;20033;-85
2023/01/21 18:49:49;;;;;;;5.87;3.60;;;;;;;;;;10409519;28;20356;-83
2023/01/21 18:54:50;;;;;;;5.20;1.20;;;;;;;;;;10408336;28;20041;-82
2023/01/21 18:59:51;;;;;;;2.97;1.77;;;;;;;;;;10398284;28;20481;-82
2023/01/21 19:04:52;;;;;;;3.20;3.00;;;;;;;;;;10398631;28;20065;-82
2023/01/21 19:09:53;;;;;;;2.47;2.30;;;;;;;;;;10395921;28;20040;-82
2023/01/21 19:14:54;;;;;;;2.57;2.40;;;;;;;;;;10397278;28;20072;-84
2023/01/21 19:19:56;;;;;;;2.93;2.73;;;;;;;;;;10399514;28;20041;-83
2023/01/21 19:24:57;;;;;;;1.17;1.17;;;;;;;;;;10398265;28;20029;-82
2023/01/21 19:29:58;;;;;;;0.33;0.33;;;;;;;;;;10399784;28;20048;-82
2023/01/21 19:35:00;;;;;;;1.77;1.67;;;;;;;;;;10394291;28;20102;-82
2023/01/21 19:40:01;;;;;;;2.33;2.23;;;;;;;;;;10397526;28;20512;-84
2023/01/21 19:45:03;;;;;;;2.03;1.93;;;;;;;;;;10410954;28;20033;-82
2023/01/21 19:50:05;;;;;;;2.70;2.47;;;;;;;;;;10395799;28;20045;-81
2023/01/21 19:55:06;;;;;;;0.83;0.83;;;;;;;;;;10394983;28;20038;-84
2023/01/21 20:00:20;;;;;;;0.40;0.40;;;;;;;;;;10402516;28;20035;-82
2023/01/21 20:05:22;;;;;;;5.47;1.53;;;;;;;;;;10418015;28;20025;-82
2023/01/21 20:10:24;;;;;;;3.47;3.17;;;;;;;;;;10400627;28;20033;-81
2023/01/21 20:15:29;;;;;;;0.80;0.80;;;;;;;;;;10402856;28;20054;-82
2023/01/21 20:20:31;;;;;;;5.20;2.63;;;;;;;;;;10403637;28;20028;-82
2023/01/21 20:25:36;;;;;;;1.90;1.73;;;;;;;;;;10401603;28;20083;-82
2023/01/21 20:30:37;;;;;;;1.20;1.20;;;;;;;;;;10401507;28;20041;-84
2023/01/21 20:35:39;;;;;;;0.83;0.83;;;;;;;;;;10400314;28;20091;-82
2023/01/21 20:40:40;;;;;;;6.27;4.87;;;;;;;;;;10401443;28;20383;-82
2023/01/21 20:45:42;;;;;;;2.43;2.33;;;;;;;;;;10402871;28;20124;-82
2023/01/21 20:50:43;;;;;;;3.23;3.03;;;;;;;;;;10401927;28;20032;-82
2023/01/21 20:55:45;;;;;;;1.67;1.63;;;;;;;;;;10416534;28;20052;-81
2023/01/21 21:00:46;;;;;;;0.20;0.20;;;;;;;;;;10387540;28;20132;-83
2023/01/21 21:05:48;;;;;;;6.30;5.23;;;;;;;;;;10399208;28;20381;-83
2023/01/21 21:10:54;;;;;;;4.87;4.43;;;;;;;;;;10400488;28;20029;-83
2023/01/21 21:15:55;;;;;;;0.38;0.38;;;;;;;;;;10401128;28;20115;-82
2023/01/21 21:20:56;;;;;;;3.23;1.20;;;;;;;;;;10400447;28;20628;-83
2023/01/21 21:25:57;;;;;;;0.10;0.10;;;;;;;;;;10401222;28;20033;-82
2023/01/21 21:31:00;;;;;;;6.03;3.10;;;;;;;;;;10400051;28;20044;-83
2023/01/21 21:36:01;;;;;;;0.83;0.73;;;;;;;;;;10414489;28;20076;-83
2023/01/21 21:43:30;;;;;;;0.03;0.03;;;;;;;;;;10400649;28;20032;-82
2023/01/21 21:51:42;;;;;;;0.73;0.73;;;;;;;;;;10399809;28;20034;-83
2023/01/21 21:56:44;;;;;;;0.80;0.80;;;;;;;;;;10398538;28;20103;-82
2023/01/21 22:01:45;;;;;;;6.43;4.90;;;;;;;;;;10398638;28;20033;-82
2023/01/21 22:06:46;;;;;;;2.40;2.27;;;;;;;;;;10398910;28;20033;-82
2023/01/21 22:11:47;;;;;;;2.00;1.90;;;;;;;;;;10399323;28;20065;-82
2023/01/21 22:16:50;;;;;;;1.90;1.50;;;;;;;;;;10397075;28;20887;-82
2023/01/21 22:21:51;;;;;;;1.17;1.17;;;;;;;;;;10397340;28;20068;-83
2023/01/21 22:26:52;;;;;;;3.77;3.47;;;;;;;;;;10398678;28;20040;-82
2023/01/21 22:31:53;;;;;;;1.30;1.30;;;;;;;;;;10399032;28;20122;-81
2023/01/21 22:36:54;;;;;;;4.13;1.50;;;;;;;;;;10396010;28;20045;-82
2023/01/21 22:41:58;;;;;;;6.10;5.63;;;;;;;;;;10397686;28;20084;-82
2023/01/21 22:46:59;;;;;;;1.33;1.23;;;;;;;;;;10397644;28;20025;-83
2023/01/21 22:52:00;;;;;;;0.50;0.50;;;;;;;;;;10398841;28;20045;-83
2023/01/21 22:57:01;;;;;;;0.30;0.30;;;;;;;;;;10397254;28;20045;-82
2023/01/21 23:02:02;;;;;;;2.10;2.00;;;;;;;;;;10399054;28;20041;-83
2023/01/21 23:07:03;;;;;;;1.37;1.30;;;;;;;;;;10396962;28;20038;-82
2023/01/21 23:12:05;;;;;;;1.13;1.13;;;;;;;;;;10397929;28;20391;-81
2023/01/21 23:17:06;;;;;;;0.17;0.17;;;;;;;;;;10397319;28;20061;-82
2023/01/21 23:22:08;;;;;;;6.23;4.23;;;;;;;;;;10396506;28;20118;-82
2023/01/21 23:27:09;;;;;;;1.83;1.73;;;;;;;;;;10398423;28;20037;-83
2023/01/21 23:32:10;;;;;;;4.03;3.80;;;;;;;;;;10396075;28;20044;-82
2023/01/21 23:37:11;;;;;;;1.80;1.70;;;;;;;;;;10406420;28;20041;-82
2023/01/21 23:42:12;;;;;;;3.43;3.13;;;;;;;;;;10399799;28;20029;-82
2023/01/21 23:47:13;;;;;;;8.93;4.40;;;;;;;;;;10404525;28;20034;-83
2023/01/21 23:52:14;;;;;;;1.80;1.10;;;;;;;;;;10403486;28;20039;-83
2023/01/21 23:57:15;;;;;;;0.37;0.37;;;;;;;;;;10418900;28;20037;-82
